Terminal Aerodrome Forecast
Issued by NWS

Home | Current Version | Previous Version | Text Only | Print | Product List | Glossary Off
Versions: 1 2 3 4 5 6 7 8 9 10 11 12

005
FTUS43 KIWX 261732
TAFSBN
TAF
KSBN 261732Z 2618/2718 28018G25KT P6SM SCT060
     FM270000 26008KT P6SM SKC
     FM271500 26012G21KT P6SM SCT200=

USA.gov is the U.S. government's official web portal to all federal, state and local government web resources and services.